createdAt,value
2022-08-24T00:01:36.664Z,11.97
2022-08-24T00:04:07.862Z,11.75
2022-08-24T00:06:40.505Z,11.45
2022-08-24T00:09:11.594Z,13.03
2022-08-24T00:11:43.426Z,9.85
2022-08-24T00:14:15.444Z,12.58
2022-08-24T00:16:47.119Z,13.90
2022-08-24T00:19:18.502Z,14.35
2022-08-24T00:21:49.939Z,13.65
2022-08-24T00:24:22.027Z,14.75
2022-08-24T00:26:54.422Z,13.45
2022-08-24T00:29:25.889Z,12.82
2022-08-24T00:31:57.335Z,12.78
2022-08-24T00:34:30.038Z,13.48
2022-08-24T00:37:01.313Z,14.58
2022-08-24T00:39:34.288Z,13.80
2022-08-24T00:42:05.752Z,15.23
2022-08-24T00:44:37.252Z,14.50
2022-08-24T00:47:11.429Z,14.50
2022-08-24T00:49:51.828Z,13.68
2022-08-24T00:52:29.885Z,16.15
2022-08-24T00:55:03.878Z,15.85
2022-08-24T00:57:38.296Z,14.93
2022-08-24T01:00:12.398Z,15.40
2022-08-24T01:02:46.728Z,16.67
2022-08-24T01:05:18.426Z,15.58
2022-08-24T01:07:51.094Z,15.20
2022-08-24T01:10:28.438Z,15.88
2022-08-24T01:13:02.643Z,15.32
2022-08-24T01:15:39.159Z,15.08
2022-08-24T01:18:20.738Z,15.05
2022-08-24T01:20:54.659Z,14.38
2022-08-24T01:23:36.515Z,14.40
2022-08-24T01:26:06.756Z,14.20
2022-08-24T01:28:41.178Z,12.40
2022-08-24T01:31:12.873Z,13.28
2022-08-24T01:33:44.295Z,11.50
2022-08-24T01:36:28.261Z,12.30
2022-08-24T01:38:59.588Z,12.73
2022-08-24T01:41:31.021Z,12.88
2022-08-24T01:44:02.751Z,13.20
2022-08-24T01:46:34.020Z,12.63
2022-08-24T01:49:06.106Z,12.75
2022-08-24T01:51:37.269Z,13.58
2022-08-24T01:54:08.839Z,12.93
2022-08-24T01:56:40.167Z,12.07
2022-08-24T01:59:12.947Z,13.15
2022-08-24T02:01:47.023Z,12.98
2022-08-24T02:04:19.143Z,11.70
2022-08-24T02:06:50.163Z,12.15
2022-08-24T02:09:22.194Z,11.65
2022-08-24T02:11:55.910Z,11.57
2022-08-24T02:14:30.692Z,11.55
2022-08-24T02:17:00.592Z,10.28
2022-08-24T02:19:32.189Z,11.50
2022-08-24T02:22:06.446Z,10.93
2022-08-24T02:24:39.709Z,9.40
2022-08-24T02:27:10.906Z,10.50
2022-08-24T02:29:43.566Z,10.00
2022-08-24T02:32:15.456Z,9.35
2022-08-24T02:34:46.745Z,9.40
2022-08-24T02:37:18.168Z,9.08
2022-08-24T02:39:49.266Z,9.03
2022-08-24T02:42:23.166Z,9.08
2022-08-24T02:44:55.751Z,9.28
2022-08-24T02:47:37.971Z,9.43
2022-08-24T02:50:01.954Z,11.53
2022-08-24T02:52:37.393Z,11.00
2022-08-24T02:57:40.672Z,12.53
2022-08-24T03:00:14.737Z,11.55
2022-08-24T03:02:46.144Z,10.72
2022-08-24T03:05:17.735Z,12.75
2022-08-24T03:07:49.061Z,12.33
2022-08-24T03:10:23.178Z,11.63
2022-08-24T03:12:58.790Z,11.75
2022-08-24T03:15:27.894Z,10.15
2022-08-24T03:17:59.089Z,8.98
2022-08-24T03:20:31.028Z,8.65
2022-08-24T03:23:02.585Z,8.53
2022-08-24T03:25:33.964Z,8.23
2022-08-24T03:28:08.655Z,7.90
2022-08-24T03:30:38.833Z,7.75
2022-08-24T03:33:12.498Z,8.28
2022-08-24T03:35:44.176Z,8.65
2022-08-24T03:38:15.576Z,8.20
2022-08-24T03:40:46.633Z,8.83
2022-08-24T03:43:31.192Z,9.00
2022-08-24T03:46:03.599Z,8.80
2022-08-24T03:48:35.184Z,8.55
2022-08-24T03:51:08.319Z,6.80
2022-08-24T03:53:39.823Z,8.43
2022-08-24T03:56:13.052Z,8.70
2022-08-24T03:58:44.311Z,8.70
2022-08-24T04:01:18.066Z,7.85
2022-08-24T04:03:50.739Z,7.60
2022-08-24T04:06:23.944Z,7.05
2022-08-24T04:08:55.357Z,7.67
2022-08-24T04:11:29.119Z,7.70
2022-08-24T04:14:01.387Z,7.67
2022-08-24T04:16:34.132Z,7.50
2022-08-24T04:19:05.771Z,8.10
2022-08-24T04:21:38.667Z,7.65
2022-08-24T04:24:11.588Z,6.85
2022-08-24T04:26:45.683Z,7.12
2022-08-24T04:29:18.108Z,6.72
2022-08-24T04:31:50.698Z,7.42
2022-08-24T04:34:21.840Z,6.75
2022-08-24T04:36:53.514Z,5.65
2022-08-24T04:39:24.924Z,6.53
2022-08-24T04:41:58.985Z,7.30
2022-08-24T04:44:30.748Z,6.47
2022-08-24T04:47:05.143Z,6.80
2022-08-24T04:49:37.374Z,5.35
2022-08-24T04:52:10.703Z,7.03
2022-08-24T04:54:43.169Z,6.78
2022-08-24T04:57:18.200Z,7.47
2022-08-24T04:59:48.896Z,7.12
2022-08-24T05:02:21.350Z,6.20
2022-08-24T05:04:52.544Z,6.75
2022-08-24T05:07:23.724Z,6.67
2022-08-24T05:09:56.379Z,7.33
2022-08-24T05:12:29.591Z,6.95
2022-08-24T05:15:00.999Z,6.75
2022-08-24T05:17:32.600Z,6.25
2022-08-24T05:20:03.949Z,6.53
2022-08-24T05:22:35.412Z,6.75
2022-08-24T05:25:07.787Z,7.25
2022-08-24T05:27:39.024Z,6.65
2022-08-24T05:30:11.592Z,7.00
2022-08-24T05:32:42.811Z,6.72
2022-08-24T05:35:14.561Z,6.75
2022-08-24T05:37:46.006Z,6.62
2022-08-24T05:40:19.742Z,7.12
2022-08-24T05:42:51.170Z,6.62
2022-08-24T05:45:22.872Z,6.85
2022-08-24T05:47:53.925Z,7.60
2022-08-24T05:50:25.108Z,7.03
2022-08-24T05:52:58.025Z,6.60
2022-08-24T05:55:30.746Z,7.20
2022-08-24T05:58:02.287Z,7.50
2022-08-24T06:00:35.204Z,7.10
2022-08-24T06:03:07.155Z,7.40
2022-08-24T06:05:42.241Z,7.67
2022-08-24T06:08:13.924Z,8.48
2022-08-24T06:10:49.595Z,9.90
2022-08-24T06:13:21.039Z,10.35
2022-08-24T06:16:11.194Z,10.63
2022-08-24T06:18:27.311Z,11.28
2022-08-24T06:20:58.614Z,10.43
2022-08-24T06:23:29.815Z,10.65
2022-08-24T06:26:16.869Z,9.98
2022-08-24T06:28:48.411Z,11.18
2022-08-24T06:31:20.796Z,10.90
2022-08-24T06:33:53.175Z,10.18
2022-08-24T06:36:24.854Z,11.03
2022-08-24T06:38:56.417Z,11.43
2022-08-24T06:41:28.694Z,12.53
2022-08-24T06:44:00.470Z,12.40
2022-08-24T06:46:33.009Z,12.45
2022-08-24T06:49:04.472Z,13.72
2022-08-24T06:51:36.156Z,14.85
2022-08-24T06:54:07.642Z,15.28
2022-08-24T06:56:40.079Z,16.73
2022-08-24T06:59:11.428Z,15.63
2022-08-24T07:01:43.902Z,15.45
2022-08-24T07:04:15.622Z,13.90
2022-08-24T07:06:47.125Z,13.78
2022-08-24T07:09:20.515Z,12.05
2022-08-24T07:11:53.720Z,11.50
2022-08-24T07:14:25.224Z,11.50
2022-08-24T07:16:57.213Z,11.38
2022-08-24T07:19:28.495Z,11.18
2022-08-24T07:22:00.401Z,11.48
2022-08-24T07:24:31.416Z,10.23
2022-08-24T07:27:02.695Z,10.63
2022-08-24T07:29:50.479Z,10.48
2022-08-24T07:32:08.603Z,10.10
2022-08-24T07:34:39.870Z,10.43
2022-08-24T07:37:11.129Z,10.63
2022-08-24T07:39:42.069Z,10.63
2022-08-24T07:42:19.053Z,10.45
2022-08-24T07:44:47.417Z,10.30
2022-08-24T07:47:39.453Z,9.73
2022-08-24T07:49:52.257Z,11.12
2022-08-24T07:52:23.316Z,10.53
2022-08-24T07:54:54.557Z,11.88
2022-08-24T07:57:26.042Z,11.18
2022-08-24T08:00:01.554Z,11.25
2022-08-24T08:02:32.758Z,10.75
2022-08-24T08:05:06.630Z,10.88
2022-08-24T08:07:37.720Z,10.13
2022-08-24T08:10:10.505Z,11.15
2022-08-24T08:12:42.065Z,11.05
2022-08-24T08:15:14.001Z,11.57
2022-08-24T08:17:45.045Z,11.57
2022-08-24T08:20:19.367Z,11.43
2022-08-24T08:23:02.782Z,11.12
2022-08-24T08:25:33.901Z,11.33
2022-08-24T08:28:18.468Z,11.53
2022-08-24T08:30:38.420Z,11.18
2022-08-24T08:33:10.036Z,11.75
2022-08-24T08:35:42.164Z,11.12
2022-08-24T08:38:13.804Z,10.40
2022-08-24T08:40:52.187Z,11.12
2022-08-24T08:43:41.555Z,10.53
2022-08-24T08:46:27.620Z,10.63
2022-08-24T08:49:04.642Z,10.88
2022-08-24T08:51:49.405Z,10.43
2022-08-24T08:54:32.023Z,10.68
2022-08-24T08:57:12.154Z,10.25
2022-08-24T09:00:15.791Z,9.50
2022-08-24T09:02:55.699Z,10.15
2022-08-24T09:05:44.569Z,8.90
2022-08-24T09:08:39.642Z,8.03
2022-08-24T09:11:18.564Z,8.58
2022-08-24T09:14:10.529Z,9.13
2022-08-24T09:16:56.472Z,8.40
2022-08-24T09:19:36.683Z,9.13
2022-08-24T09:22:19.702Z,8.70
2022-08-24T09:25:05.552Z,8.73
2022-08-24T09:28:01.260Z,8.65
2022-08-24T09:30:54.768Z,8.20
2022-08-24T09:33:31.835Z,7.75
2022-08-24T09:36:15.863Z,8.30
2022-08-24T09:38:56.176Z,8.30
2022-08-24T09:41:49.915Z,8.35
2022-08-24T09:44:45.726Z,8.23
2022-08-24T09:47:22.632Z,8.53
2022-08-24T09:50:08.171Z,9.00
2022-08-24T09:53:00.208Z,8.75
2022-08-24T09:55:42.825Z,8.83
2022-08-24T09:58:28.617Z,8.85
2022-08-24T10:03:46.265Z,9.08
2022-08-24T10:06:23.072Z,8.35
2022-08-24T10:09:24.029Z,8.73
2022-08-24T10:12:09.875Z,8.63
2022-08-24T10:15:04.974Z,9.48
2022-08-24T10:17:48.795Z,7.90
2022-08-24T10:20:26.597Z,8.63
2022-08-24T10:23:08.092Z,7.08
2022-08-24T10:25:51.153Z,7.87
2022-08-24T10:28:37.022Z,7.33
2022-08-24T10:31:13.011Z,7.75
2022-08-24T10:33:59.774Z,7.15
2022-08-24T10:36:36.467Z,6.70
2022-08-24T10:39:32.580Z,7.47
2022-08-24T10:42:34.759Z,7.45
2022-08-24T10:45:15.114Z,7.95
2022-08-24T10:48:01.011Z,8.10
2022-08-24T10:50:47.802Z,8.48
2022-08-24T10:53:31.199Z,8.88
2022-08-24T10:56:11.518Z,8.73
2022-08-24T10:58:55.175Z,8.88
2022-08-24T11:01:32.300Z,11.35
2022-08-24T11:04:12.492Z,9.25
2022-08-24T11:06:46.568Z,9.30
2022-08-24T11:09:20.034Z,11.53
2022-08-24T11:11:52.753Z,9.18
2022-08-24T11:14:30.143Z,8.95
2022-08-24T11:17:16.017Z,9.23
2022-08-24T11:19:47.853Z,9.00
2022-08-24T11:22:33.806Z,8.13
2022-08-24T11:25:13.944Z,8.68
2022-08-24T11:27:53.898Z,8.03
2022-08-24T11:30:30.768Z,7.65
2022-08-24T11:33:05.854Z,7.72
2022-08-24T11:38:26.485Z,8.30
2022-08-24T11:41:15.646Z,8.20
2022-08-24T11:43:58.663Z,8.38
2022-08-24T11:46:35.862Z,7.95
2022-08-24T11:49:24.912Z,8.58
2022-08-24T11:52:05.566Z,8.48
2022-08-24T11:54:42.894Z,8.25
2022-08-24T11:57:29.436Z,9.10
2022-08-24T12:00:11.158Z,8.10
2022-08-24T12:03:01.122Z,8.03
2022-08-24T12:05:55.957Z,7.75
2022-08-24T12:08:42.326Z,7.87
2022-08-24T12:11:37.350Z,8.20
2022-08-24T12:14:23.086Z,7.75
2022-08-24T12:16:56.964Z,7.75
2022-08-24T12:19:36.820Z,8.38
2022-08-24T12:22:10.402Z,8.20
2022-08-24T12:24:44.438Z,7.78
2022-08-24T12:27:30.235Z,7.55
2022-08-24T12:30:05.890Z,7.85
2022-08-24T12:32:46.058Z,8.28
2022-08-24T12:35:22.930Z,7.80
2022-08-24T12:38:05.885Z,8.38
2022-08-24T12:40:46.552Z,7.95
2022-08-24T12:43:23.747Z,7.75
2022-08-24T12:46:01.954Z,7.20
2022-08-24T12:48:44.854Z,7.47
2022-08-24T12:51:28.095Z,7.37
2022-08-24T12:54:08.066Z,7.72
2022-08-24T12:56:54.313Z,7.33
2022-08-24T12:59:28.895Z,6.90
2022-08-24T13:02:15.362Z,7.42
2022-08-24T13:04:55.636Z,7.80
2022-08-24T13:07:32.341Z,6.90
2022-08-24T13:10:09.137Z,7.30
2022-08-24T13:12:45.815Z,7.40
2022-08-24T13:15:30.090Z,7.00
2022-08-24T13:18:13.195Z,7.53
2022-08-24T13:20:55.076Z,7.03
2022-08-24T13:23:27.866Z,6.92
2022-08-24T13:26:05.198Z,7.30
2022-08-24T13:28:44.600Z,6.83
2022-08-24T13:31:37.946Z,6.90
2022-08-24T13:34:13.630Z,7.67
2022-08-24T13:37:06.500Z,7.75
2022-08-24T13:39:52.429Z,7.05
2022-08-24T13:42:38.475Z,7.22
2022-08-24T13:45:24.848Z,7.62
2022-08-24T13:48:04.742Z,7.65
2022-08-24T13:50:42.131Z,7.42
2022-08-24T13:53:21.656Z,6.90
2022-08-24T13:56:13.684Z,7.33
2022-08-24T13:59:10.080Z,7.50
2022-08-24T14:02:06.435Z,7.08
2022-08-24T14:04:57.998Z,7.72
2022-08-24T14:07:47.538Z,7.62
2022-08-24T14:10:42.536Z,7.55
2022-08-24T14:13:26.693Z,8.08
2022-08-24T14:16:14.538Z,7.70
2022-08-24T14:18:48.728Z,8.05
2022-08-24T14:21:22.801Z,7.72
2022-08-24T14:24:02.967Z,7.40
2022-08-24T14:26:41.319Z,7.40
2022-08-24T14:29:22.815Z,7.72
2022-08-24T14:32:12.061Z,7.33
2022-08-24T14:34:53.570Z,7.00
2022-08-24T14:37:27.712Z,8.05
2022-08-24T14:40:02.057Z,7.42
2022-08-24T14:42:41.951Z,7.37
2022-08-24T14:45:16.266Z,7.75
2022-08-24T14:48:01.525Z,7.08
2022-08-24T14:50:39.305Z,7.50
2022-08-24T14:53:13.152Z,7.10
2022-08-24T14:56:01.109Z,6.87
2022-08-24T14:58:40.882Z,6.95
2022-08-24T15:01:27.738Z,7.42
2022-08-24T15:04:04.496Z,7.28
2022-08-24T15:06:50.465Z,7.50
2022-08-24T15:09:37.505Z,7.95
2022-08-24T15:12:26.784Z,7.25
2022-08-24T15:15:12.662Z,7.83
2022-08-24T15:18:06.468Z,7.42
2022-08-24T15:20:51.812Z,6.90
2022-08-24T15:23:26.145Z,7.58
2022-08-24T15:26:00.067Z,7.90
2022-08-24T15:28:35.958Z,6.75
2022-08-24T15:31:12.943Z,7.17
2022-08-24T15:33:59.016Z,6.80
2022-08-24T15:36:33.601Z,6.85
2022-08-24T15:39:07.057Z,6.75
2022-08-24T15:41:42.483Z,7.35
2022-08-24T15:44:21.477Z,7.17
2022-08-24T15:46:55.616Z,7.55
2022-08-24T15:49:42.412Z,7.20
2022-08-24T15:52:28.433Z,7.55
2022-08-24T15:55:03.732Z,7.10
2022-08-24T15:57:42.053Z,7.53
2022-08-24T16:00:23.343Z,7.08
2022-08-24T16:02:54.605Z,7.22
2022-08-24T16:05:28.605Z,6.78
2022-08-24T16:08:09.922Z,7.08
2022-08-24T16:10:52.878Z,5.85
2022-08-24T16:13:27.152Z,6.28
2022-08-24T16:16:09.358Z,5.92
2022-08-24T16:18:53.227Z,5.75
2022-08-24T16:21:36.860Z,5.70
2022-08-24T16:24:17.334Z,5.80
2022-08-24T16:26:51.537Z,6.22
2022-08-24T16:29:41.923Z,6.03
2022-08-24T16:32:33.078Z,5.87
2022-08-24T16:35:10.967Z,6.30
2022-08-24T16:37:42.143Z,6.28
2022-08-24T16:40:14.766Z,6.25
2022-08-24T16:42:45.931Z,6.65
2022-08-24T16:45:22.085Z,6.10
2022-08-24T16:47:53.265Z,6.15
2022-08-24T16:50:27.446Z,5.75
2022-08-24T16:52:57.821Z,5.53
2022-08-24T16:55:30.768Z,6.20
2022-08-24T16:58:02.959Z,5.62
2022-08-24T17:00:34.543Z,5.40
2022-08-24T17:03:06.125Z,5.15
2022-08-24T17:05:37.331Z,5.35
2022-08-24T17:08:11.551Z,5.78
2022-08-24T17:10:44.455Z,5.15
2022-08-24T17:13:33.035Z,5.65
2022-08-24T17:15:53.717Z,5.62
2022-08-24T17:18:24.421Z,5.08
2022-08-24T17:20:57.026Z,5.65
2022-08-24T17:23:28.365Z,5.62
2022-08-24T17:25:59.646Z,5.33
2022-08-24T17:28:31.147Z,5.65
2022-08-24T17:31:02.297Z,5.20
2022-08-24T17:33:33.583Z,4.78
2022-08-24T17:36:07.296Z,4.78
2022-08-24T17:38:42.906Z,5.28
2022-08-24T17:41:18.490Z,5.08
2022-08-24T17:43:48.461Z,5.53
2022-08-24T17:46:21.551Z,5.20
2022-08-24T17:48:52.732Z,5.53
2022-08-24T17:51:23.707Z,4.92
2022-08-24T17:53:54.999Z,5.42
2022-08-24T17:56:27.882Z,5.30
2022-08-24T17:59:12.359Z,5.55
2022-08-24T18:01:43.553Z,5.22
2022-08-24T18:04:14.634Z,5.47
2022-08-24T18:06:46.245Z,5.65
2022-08-24T18:09:35.355Z,5.12
2022-08-24T18:12:10.335Z,5.35
2022-08-24T18:14:41.523Z,5.42
2022-08-24T18:17:21.105Z,5.20
2022-08-24T18:19:54.096Z,5.87
2022-08-24T18:22:25.215Z,5.20
2022-08-24T18:24:56.487Z,6.12
2022-08-24T18:27:30.800Z,5.75
2022-08-24T18:30:05.685Z,5.47
2022-08-24T18:32:39.999Z,5.30
2022-08-24T18:35:12.161Z,5.42
2022-08-24T18:37:43.121Z,5.78
2022-08-24T18:40:21.390Z,5.65
2022-08-24T18:42:51.648Z,6.33
2022-08-24T18:45:23.960Z,6.17
2022-08-24T18:47:55.432Z,6.20
2022-08-24T18:50:28.643Z,6.42
2022-08-24T18:53:00.544Z,6.10
2022-08-24T18:55:31.778Z,6.17
2022-08-24T18:58:02.874Z,6.25
2022-08-24T19:00:34.751Z,6.22
2022-08-24T19:03:08.742Z,5.50
2022-08-24T19:05:41.372Z,6.15
2022-08-24T19:08:14.766Z,6.37
2022-08-24T19:10:46.362Z,6.08
2022-08-24T19:13:19.831Z,5.97
2022-08-24T19:15:51.574Z,6.10
2022-08-24T19:18:24.387Z,6.45
2022-08-24T19:20:58.665Z,6.30
2022-08-24T19:23:38.071Z,6.55
2022-08-24T19:26:09.541Z,6.85
2022-08-24T19:28:42.253Z,7.25
2022-08-24T19:31:15.442Z,7.00
2022-08-24T19:33:50.034Z,7.47
2022-08-24T19:36:22.888Z,6.75
2022-08-24T19:38:54.183Z,7.20
2022-08-24T19:41:36.877Z,6.83
2022-08-24T19:44:05.072Z,7.25
2022-08-24T19:46:37.601Z,6.87
2022-08-24T19:49:08.820Z,6.33
2022-08-24T19:51:40.361Z,7.40
2022-08-24T19:54:13.752Z,6.83
2022-08-24T19:56:46.003Z,6.37
2022-08-24T19:59:24.188Z,7.12
2022-08-24T20:01:55.651Z,6.65
2022-08-24T20:04:28.024Z,7.35
2022-08-24T20:06:59.199Z,7.50
2022-08-24T20:09:32.085Z,7.03
2022-08-24T20:12:03.110Z,7.60
2022-08-24T20:14:37.462Z,7.60
2022-08-24T20:17:08.120Z,7.10
2022-08-24T20:19:41.679Z,8.03
2022-08-24T20:22:13.631Z,7.03
2022-08-24T20:24:45.545Z,7.60
2022-08-24T20:27:19.670Z,6.72
2022-08-24T20:29:51.255Z,7.60
2022-08-24T20:32:24.017Z,7.50
2022-08-24T20:34:56.726Z,7.83
2022-08-24T20:37:30.102Z,7.50
2022-08-24T20:40:03.761Z,8.30
2022-08-24T20:42:37.611Z,8.98
2022-08-24T20:45:10.921Z,9.80
2022-08-24T20:47:45.098Z,8.18
2022-08-24T20:50:19.217Z,7.80
2022-08-24T20:52:51.547Z,7.47
2022-08-24T20:55:22.877Z,8.10
2022-08-24T20:57:57.015Z,7.40
2022-08-24T21:00:31.543Z,7.92
2022-08-24T21:03:02.892Z,7.40
2022-08-24T21:05:34.794Z,7.85
2022-08-24T21:08:06.614Z,7.70
2022-08-24T21:10:38.124Z,7.83
2022-08-24T21:13:09.697Z,7.62
2022-08-24T21:15:41.983Z,7.75
2022-08-24T21:18:13.364Z,7.78
2022-08-24T21:20:59.897Z,7.97
2022-08-24T21:23:17.535Z,8.38
2022-08-24T21:25:49.098Z,7.37
2022-08-24T21:28:22.714Z,7.37
2022-08-24T21:30:54.153Z,7.67
2022-08-24T21:33:38.406Z,6.90
2022-08-24T21:36:10.289Z,6.10
2022-08-24T21:38:45.460Z,6.00
2022-08-24T21:41:16.815Z,5.10
2022-08-24T21:43:48.496Z,5.33
2022-08-24T21:46:19.968Z,4.90
2022-08-24T21:48:51.019Z,4.67
2022-08-24T21:51:23.508Z,5.35
2022-08-24T21:53:59.679Z,4.65
2022-08-24T21:56:33.769Z,4.75
2022-08-24T21:59:04.987Z,4.42
2022-08-24T22:01:36.525Z,4.72
2022-08-24T22:04:09.544Z,4.58
2022-08-24T22:06:41.134Z,4.80
2022-08-24T22:09:12.669Z,4.97
2022-08-24T22:11:44.546Z,5.08
2022-08-24T22:14:17.440Z,4.70
2022-08-24T22:16:48.567Z,4.72
2022-08-24T22:19:19.778Z,5.15
2022-08-24T22:21:51.191Z,4.65
2022-08-24T22:24:22.399Z,4.30
2022-08-24T22:26:53.573Z,4.80
2022-08-24T22:29:26.580Z,4.65
2022-08-24T22:31:57.812Z,4.53
2022-08-24T22:34:29.041Z,4.15
2022-08-24T22:37:02.081Z,4.67
2022-08-24T22:39:33.639Z,4.70
2022-08-24T22:42:05.133Z,4.33
2022-08-24T22:44:36.815Z,4.85
2022-08-24T22:47:13.139Z,4.87
2022-08-24T22:49:47.178Z,4.92
2022-08-24T22:52:19.119Z,4.25
2022-08-24T22:54:50.547Z,4.47
2022-08-24T22:57:21.616Z,4.58
2022-08-24T22:59:52.661Z,4.67
2022-08-24T23:02:24.239Z,4.45
2022-08-24T23:04:55.880Z,4.12
2022-08-24T23:07:27.061Z,4.12
2022-08-24T23:09:58.347Z,4.22
2022-08-24T23:12:29.858Z,4.60
2022-08-24T23:15:01.377Z,4.55
2022-08-24T23:17:32.389Z,4.83
2022-08-24T23:20:07.134Z,4.87
2022-08-24T23:22:40.893Z,4.75
2022-08-24T23:25:14.540Z,4.42
2022-08-24T23:27:49.871Z,4.55
2022-08-24T23:30:18.570Z,4.58
2022-08-24T23:32:49.838Z,5.00
2022-08-24T23:35:21.094Z,4.50
2022-08-24T23:37:52.165Z,4.33
2022-08-24T23:40:23.371Z,4.60
2022-08-24T23:42:54.391Z,4.30
2022-08-24T23:45:28.394Z,3.87
2022-08-24T23:47:58.998Z,4.28
2022-08-24T23:50:30.704Z,4.12
2022-08-24T23:53:02.226Z,4.35
2022-08-24T23:55:33.485Z,4.62
2022-08-24T23:58:04.946Z,4.30
